Time;durP1;ratioP1;P1;durP2;ratioP2;P2;SDS_P1;SDS_P2;PMS_P1;PMS_P2;Temp;Humidity;BMP_temperature;BMP_pressure;BME280_temperature;BME280_humidity;BME280_pressure;Samples;Min_cycle;Max_cycle;Signal;HPM_P1;HPM_P2
2023/01/30 07:53:40;;;;;;;15.90;7.25;;;;;;;-1.45;100.00;99546.44;5129614;27;20376;-79
2023/01/30 07:56:08;;;;;;;17.00;7.03;;;;;;;-1.56;100.00;99514.28;5125857;27;20069;-80
2023/01/30 07:58:35;;;;;;;12.85;7.00;;;;;;;-1.37;100.00;99529.94;5124941;27;20047;-80
2023/01/30 08:01:01;;;;;;;16.00;7.88;;;;;;;-1.38;100.00;99509.56;5127875;27;20051;-79
2023/01/30 08:03:28;;;;;;;12.80;7.43;;;;;;;-1.17;100.00;99531.31;5127633;27;20065;-79
2023/01/30 08:05:54;;;;;;;13.68;7.28;;;;;;;-1.17;100.00;99540.16;5127673;27;20077;-79
2023/01/30 08:08:21;;;;;;;17.02;8.32;;;;;;;-1.06;100.00;99542.13;5129630;28;20048;-80
2023/01/30 08:10:49;;;;;;;21.80;7.43;;;;;;;-1.13;100.00;99512.34;5129033;27;20044;-80
2023/01/30 08:13:16;;;;;;;12.90;7.35;;;;;;;-0.92;100.00;99541.19;5128750;27;20055;-80
2023/01/30 08:15:42;;;;;;;13.35;6.40;;;;;;;-0.88;100.00;99507.16;5127672;27;20047;-80
2023/01/30 08:18:09;;;;;;;12.68;6.38;;;;;;;-0.74;100.00;99488.38;5116586;27;20043;-80
2023/01/30 08:20:36;;;;;;;15.95;7.13;;;;;;;-0.94;100.00;99437.22;5125178;27;20143;-80
2023/01/30 08:23:02;;;;;;;14.15;7.32;;;;;;;-0.78;100.00;99474.41;5128408;27;20047;-80
2023/01/30 08:25:30;;;;;;;10.52;4.25;;;;;;;-0.78;100.00;99476.22;5129057;27;20044;-80
2023/01/30 08:27:58;;;;;;;12.00;5.93;;;;;;;-0.75;100.00;99455.50;5129271;27;20070;-80
2023/01/30 08:30:24;;;;;;;11.15;6.15;;;;;;;-0.74;100.00;99451.88;5123336;27;20050;-80
2023/01/30 08:32:51;;;;;;;11.98;5.93;;;;;;;-0.88;100.00;99427.94;5124637;27;20074;-80
2023/01/30 08:35:18;;;;;;;11.48;5.90;;;;;;;-0.60;100.00;99472.28;5121430;27;20048;-80
2023/01/30 08:37:44;;;;;;;14.85;5.80;;;;;;;-0.83;100.00;99454.31;5128890;27;20054;-80
2023/01/30 08:40:12;;;;;;;16.52;5.85;;;;;;;-0.78;100.00;99468.22;5128824;27;20402;-80
2023/01/30 08:42:38;;;;;;;9.70;5.32;;;;;;;-0.80;100.00;99457.63;5128227;27;20058;-80
2023/01/30 08:45:07;;;;;;;12.70;6.25;;;;;;;-0.75;100.00;99451.97;5127735;27;20043;-80
2023/01/30 08:47:34;;;;;;;15.52;6.78;;;;;;;-0.59;100.00;99462.44;5128720;27;20058;-80
2023/01/30 08:50:01;;;;;;;11.75;5.95;;;;;;;-0.65;100.00;99458.38;5125570;27;20052;-80
2023/01/30 08:52:27;;;;;;;12.38;5.38;;;;;;;-0.74;100.00;99465.22;5125904;27;20491;-80
2023/01/30 08:54:54;;;;;;;12.95;5.75;;;;;;;-0.81;100.00;99437.22;5109572;27;20044;-80
2023/01/30 08:57:20;;;;;;;10.52;5.35;;;;;;;-0.65;100.00;99444.16;5108232;28;20399;-80
2023/01/30 08:59:50;;;;;;;11.75;6.50;;;;;;;-0.53;100.00;99427.28;5119741;27;20043;-80
2023/01/30 09:02:17;;;;;;;10.77;5.57;;;;;;;-0.65;100.00;99406.78;5127807;27;20059;-80
2023/01/30 09:04:44;;;;;;;9.73;5.95;;;;;;;-0.48;100.00;99430.50;5113119;27;20413;-80
2023/01/30 09:07:11;;;;;;;10.48;5.68;;;;;;;-0.42;100.00;99437.22;5114632;28;20043;-80
2023/01/30 09:09:37;;;;;;;11.98;6.15;;;;;;;-0.56;100.00;99416.81;5114447;28;20474;-80
2023/01/30 09:12:04;;;;;;;11.35;5.75;;;;;;;-0.62;100.00;99411.91;5107893;27;20209;-80
2023/01/30 09:14:31;;;;;;;15.50;5.80;;;;;;;-0.47;100.00;99445.53;5100842;28;20067;-80
2023/01/30 09:16:57;;;;;;;11.13;5.65;;;;;;;-0.33;100.00;99438.38;5112892;28;20043;-80
2023/01/30 09:19:27;;;;;;;10.43;5.78;;;;;;;-0.41;100.00;99438.94;5112427;28;20043;-81
2023/01/30 09:21:55;;;;;;;18.90;5.95;;;;;;;-0.41;100.00;99425.56;5110715;28;20054;-80
2023/01/30 09:24:25;;;;;;;10.60;6.03;;;;;;;-0.30;100.00;99425.69;5113553;28;20043;-80
2023/01/30 09:26:51;;;;;;;13.30;6.45;;;;;;;-0.30;100.00;99419.47;5114437;28;20094;-80
2023/01/30 09:29:18;;;;;;;15.90;7.57;;;;;;;-0.24;100.00;99429.69;5114388;28;20056;-80
2023/01/30 09:31:45;;;;;;;17.50;7.40;;;;;;;-0.31;100.00;99423.97;5112406;28;20534;-81
2023/01/30 09:34:11;;;;;;;19.60;6.95;;;;;;;-0.20;100.00;99421.38;5113027;28;20428;-80
2023/01/30 09:36:39;;;;;;;15.27;6.65;;;;;;;-0.23;100.00;99415.38;5114024;28;20055;-80
2023/01/30 09:39:06;;;;;;;12.70;6.43;;;;;;;-0.09;100.00;99417.94;5109839;28;20047;-80
2023/01/30 09:41:48;;;;;;;11.63;5.82;;;;;;;-0.13;100.00;99418.28;5113792;28;20135;-80
2023/01/30 09:44:35;;;;;;;8.55;5.28;;;;;;;-0.14;100.00;99403.19;5113352;28;20051;-80
2023/01/30 09:47:09;;;;;;;10.50;4.88;;;;;;;-0.10;100.00;99415.38;5113436;28;20046;-80
2023/01/30 09:49:55;;;;;;;13.30;5.70;;;;;;;0.02;100.00;99424.31;5105467;28;20056;-80
2023/01/30 09:52:31;;;;;;;11.68;5.30;;;;;;;0.04;100.00;99409.03;5113308;28;20043;-80
2023/01/30 09:55:02;;;;;;;9.85;5.22;;;;;;;-0.06;100.00;99374.94;5113838;28;20044;-80
2023/01/30 09:57:29;;;;;;;10.80;4.82;;;;;;;-0.04;100.00;99359.63;5113547;28;20047;-80
2023/01/30 10:00:02;;;;;;;8.65;4.35;;;;;;;0.07;100.00;99374.03;5113628;28;20122;-80
2023/01/30 10:02:39;;;;;;;8.77;4.88;;;;;;;0.07;100.00;99363.34;5109361;28;20059;-80
2023/01/30 10:05:07;;;;;;;8.18;4.72;;;;;;;0.20;100.00;99388.22;5102619;28;20054;-80
2023/01/30 10:07:49;;;;;;;14.13;4.60;;;;;;;0.25;100.00;99386.03;5108967;28;20048;-80
2023/01/30 10:10:22;;;;;;;6.45;3.92;;;;;;;0.26;100.00;99378.91;5093342;28;20048;-80
2023/01/30 10:13:03;;;;;;;13.35;4.70;;;;;;;0.39;100.00;99386.84;5101801;28;20044;-80
2023/01/30 10:15:42;;;;;;;8.32;4.72;;;;;;;0.31;100.00;99368.69;5112240;28;20053;-80
2023/01/30 10:18:28;;;;;;;8.95;4.70;;;;;;;0.50;100.00;99394.94;5113092;28;20410;-80
2023/01/30 10:21:10;;;;;;;8.07;4.88;;;;;;;0.32;100.00;99365.06;5113190;28;20058;-80
2023/01/30 10:23:55;;;;;;;8.35;4.45;;;;;;;0.45;100.00;99381.03;5111258;28;20047;-80
2023/01/30 10:26:26;;;;;;;10.07;5.53;;;;;;;0.56;100.00;99374.88;5102181;28;20063;-80
2023/01/30 10:28:59;;;;;;;8.70;4.70;;;;;;;0.61;100.00;99372.72;5111370;28;20055;-80
2023/01/30 10:31:30;;;;;;;7.93;4.30;;;;;;;0.55;100.00;99368.66;5113537;28;20501;-80
2023/01/30 10:34:01;;;;;;;8.13;4.35;;;;;;;0.50;100.00;99370.84;5112234;28;20044;-80
2023/01/30 10:36:40;;;;;;;8.98;4.15;;;;;;;0.66;100.00;99368.72;5103939;28;20060;-80
2023/01/30 10:39:21;;;;;;;6.57;4.32;;;;;;;0.80;100.00;99370.34;5106977;28;20043;-80
2023/01/30 10:41:54;;;;;;;9.18;4.35;;;;;;;0.69;100.00;99341.72;5112314;28;20051;-80
2023/01/30 10:44:23;;;;;;;18.45;7.45;;;;;;;0.75;100.00;99350.25;5112070;28;20475;-80
2023/01/30 10:47:05;;;;;;;9.35;4.18;;;;;;;0.80;100.00;99356.09;5109116;28;20062;-80
2023/01/30 10:49:40;;;;;;;9.65;4.50;;;;;;;0.97;100.00;99370.88;5092775;28;20109;-80
2023/01/30 10:52:20;;;;;;;9.15;4.38;;;;;;;0.79;100.00;99341.03;5091432;28;20105;-80
2023/01/30 10:54:59;;;;;;;9.60;4.35;;;;;;;0.77;100.00;99353.66;5104710;28;20055;-80
2023/01/30 10:57:39;;;;;;;6.13;3.63;;;;;;;0.93;100.00;99369.38;5112393;28;20070;-80
2023/01/30 11:00:15;;;;;;;8.90;4.78;;;;;;;0.88;100.00;99356.38;5112737;28;20043;-80
2023/01/30 11:02:53;;;;;;;2.72;1.80;;;;;;;1.30;100.00;99372.72;5111796;28;20440;-80
2023/01/30 11:05:25;;;;;;;3.78;1.55;;;;;;;1.55;100.00;99378.81;5109048;28;20039;-81
2023/01/30 11:07:52;;;;;;;1.88;1.30;;;;;;;1.64;100.00;99378.09;5111528;28;20083;-80
2023/01/30 11:10:23;;;;;;;2.33;1.42;;;;;;;1.52;100.00;99371.91;5107747;27;20461;-80
2023/01/30 11:12:52;;;;;;;1.75;1.38;;;;;;;1.62;100.00;99371.16;5099493;27;20070;-80
2023/01/30 11:15:23;;;;;;;13.18;1.45;;;;;;;1.60;100.00;99352.53;5113414;27;20047;-80
2023/01/30 11:17:50;;;;;;;2.00;1.60;;;;;;;1.75;100.00;99348.59;5103805;28;20130;-80
2023/01/30 11:20:20;;;;;;;9.02;1.75;;;;;;;1.63;100.00;99330.84;5105749;28;20046;-80
2023/01/30 11:22:48;;;;;;;1.55;1.42;;;;;;;1.82;100.00;99353.47;5102301;28;20054;-80
2023/01/30 11:25:18;;;;;;;2.28;1.67;;;;;;;1.83;100.00;99349.81;5111786;28;20048;-80
2023/01/30 11:27:53;;;;;;;1.57;1.20;;;;;;;1.67;100.00;99340.34;5103937;28;20206;-80
2023/01/30 11:30:21;;;;;;;2.00;1.40;;;;;;;1.71;100.00;99341.78;5109174;27;20052;-80
2023/01/30 11:32:49;;;;;;;1.42;1.02;;;;;;;1.75;100.00;99329.84;5104278;28;20070;-81
2023/01/30 11:35:27;;;;;;;5.35;1.50;;;;;;;1.90;100.00;99357.22;5119050;27;20047;-80
2023/01/30 11:38:10;;;;;;;1.42;1.25;;;;;;;1.87;100.00;99352.13;5105203;27;20398;-81
2023/01/30 11:40:39;;;;;;;2.88;1.90;;;;;;;1.91;100.00;99344.66;5104437;28;20039;-80
2023/01/30 11:43:12;;;;;;;4.93;1.38;;;;;;;1.81;100.00;99343.69;5099005;28;20044;-80
2023/01/30 11:45:42;;;;;;;4.47;1.55;;;;;;;1.93;100.00;99364.19;5101220;27;20039;-81
2023/01/30 11:48:16;;;;;;;2.92;1.50;;;;;;;1.88;100.00;99352.97;5104249;28;20050;-80
2023/01/30 11:50:45;;;;;;;1.63;1.40;;;;;;;1.93;100.00;99351.63;5102819;28;20047;-81
2023/01/30 11:53:22;;;;;;;4.18;1.45;;;;;;;1.99;100.00;99352.94;5108430;28;20047;-81
2023/01/30 11:55:49;;;;;;;2.38;1.65;;;;;;;1.92;100.00;99330.28;5110804;27;20059;-81
2023/01/30 11:58:18;;;;;;;1.90;1.63;;;;;;;2.00;100.00;99330.50;5111807;28;20043;-80
2023/01/30 12:00:48;;;;;;;3.00;1.50;;;;;;;2.10;100.00;99336.81;5111532;28;20043;-81
2023/01/30 12:03:17;;;;;;;1.75;1.33;;;;;;;2.01;100.00;99316.13;5111503;28;20048;-81
2023/01/30 12:05:46;;;;;;;1.55;1.45;;;;;;;2.15;100.00;99327.53;5110570;28;20043;-81
2023/01/30 12:08:24;;;;;;;2.20;1.48;;;;;;;2.20;100.00;99325.31;5111466;28;20059;-80
2023/01/30 12:10:54;;;;;;;1.48;1.10;;;;;;;2.12;100.00;99301.81;5098100;27;20490;-81
2023/01/30 12:13:27;;;;;;;1.25;1.15;;;;;;;2.19;100.00;99310.22;5098839;28;20040;-80
2023/01/30 12:16:04;;;;;;;1.85;1.50;;;;;;;2.12;100.00;99297.31;5103500;28;20051;-80
2023/01/30 12:18:36;;;;;;;1.98;1.60;;;;;;;2.20;100.00;99311.91;5108333;28;20252;-80
2023/01/30 12:21:09;;;;;;;2.75;1.55;;;;;;;2.04;100.00;99294.41;5106436;28;20408;-80
2023/01/30 12:23:40;;;;;;;4.30;1.77;;;;;;;2.00;100.00;99305.53;5099113;27;20052;-80
2023/01/30 12:26:13;;;;;;;1.88;1.40;;;;;;;1.97;100.00;99295.91;5099037;28;20398;-81
2023/01/30 12:28:48;;;;;;;1.48;1.38;;;;;;;2.13;100.00;99325.00;5104849;28;20047;-81
2023/01/30 12:31:21;;;;;;;3.08;1.30;;;;;;;2.07;100.00;99310.25;5106138;28;20044;-80
2023/01/30 12:33:48;;;;;;;2.35;1.42;;;;;;;2.16;100.00;99330.09;5106725;27;20495;-81
2023/01/30 12:36:25;;;;;;;2.67;1.42;;;;;;;2.17;100.00;99330.94;5104927;28;20049;-81
2023/01/30 12:39:02;;;;;;;1.45;1.35;;;;;;;2.10;100.00;99310.00;5100712;28;20062;-82
2023/01/30 12:41:44;;;;;;;2.60;1.67;;;;;;;2.04;100.00;99301.63;5112026;27;20498;-80
2023/01/30 12:44:56;;;;;;;2.55;1.60;;;;;;;2.18;100.00;99333.50;5100149;28;20344;-80
2023/01/30 12:47:43;;;;;;;2.15;1.10;;;;;;;2.09;100.00;99327.09;5052518;28;20044;-79
2023/01/30 12:50:23;;;;;;;1.38;1.13;;;;;;;2.11;100.00;99327.81;5105323;28;20045;-81
2023/01/30 12:53:21;;;;;;;1.58;1.20;;;;;;;2.11;100.00;99314.38;5100713;28;20398;-80
2023/01/30 12:56:02;;;;;;;1.17;1.08;;;;;;;2.19;100.00;99326.31;5102739;27;20069;-83
2023/01/30 12:58:37;;;;;;;1.38;1.27;;;;;;;2.27;100.00;99337.25;5112438;28;20059;-81
2023/01/30 13:01:16;;;;;;;1.40;1.10;;;;;;;2.27;100.00;99302.38;5094967;28;20442;-81
2023/01/30 13:03:51;;;;;;;1.70;1.40;;;;;;;2.47;100.00;99335.59;5103897;28;20055;-81
2023/01/30 13:06:33;;;;;;;1.67;1.27;;;;;;;2.36;100.00;99330.28;5114743;28;20780;-82
2023/01/30 13:09:14;;;;;;;1.63;1.05;;;;;;;2.37;100.00;99335.50;5105882;28;20044;-81
2023/01/30 13:11:47;;;;;;;1.42;1.27;;;;;;;2.41;100.00;99342.31;5113564;27;20048;-82
2023/01/30 13:14:25;;;;;;;2.28;1.65;;;;;;;2.43;100.00;99353.78;5095270;28;20059;-81
2023/01/30 13:17:11;;;;;;;2.15;1.40;;;;;;;2.25;100.00;99325.81;5095300;28;20048;-81
2023/01/30 13:19:45;;;;;;;2.78;1.33;;;;;;;2.38;100.00;99350.63;5114310;28;20062;-81
2023/01/30 13:22:19;;;;;;;1.30;1.20;;;;;;;2.38;100.00;99341.72;5113880;27;20052;-81
2023/01/30 13:24:57;;;;;;;2.75;1.92;;;;;;;2.46;100.00;99350.84;5111594;28;20130;-81
2023/01/30 13:27:25;;;;;;;1.38;1.15;;;;;;;2.32;100.00;99318.97;5109358;28;20059;-81
2023/01/30 13:29:53;;;;;;;4.35;1.40;;;;;;;2.47;100.00;99365.13;5094069;28;20388;-81
2023/01/30 13:32:33;;;;;;;1.67;1.25;;;;;;;2.41;100.00;99362.91;5093173;28;20054;-81
2023/01/30 13:35:03;;;;;;;3.03;2.00;;;;;;;2.39;100.00;99379.16;5095919;28;20047;-81
2023/01/30 13:37:32;;;;;;;1.75;1.60;;;;;;;2.41;100.00;99389.75;5108442;27;20059;-80
2023/01/30 13:40:05;;;;;;;4.43;1.90;;;;;;;2.28;100.00;99377.34;5114172;28;20505;-82
2023/01/30 13:42:37;;;;;;;3.25;1.90;;;;;;;2.18;100.00;99364.84;5106200;28;20056;-81
2023/01/30 13:45:06;;;;;;;3.25;1.67;;;;;;;2.18;100.00;99364.84;5094076;28;20406;-81
2023/01/30 13:47:44;;;;;;;3.05;2.00;;;;;;;2.37;100.00;99388.34;5093801;28;20054;-80
2023/01/30 13:50:32;;;;;;;5.70;2.15;;;;;;;2.26;100.00;99373.97;5093527;28;20051;-81
2023/01/30 13:53:04;;;;;;;3.30;1.98;;;;;;;2.42;100.00;99389.63;5103380;28;20047;-81
2023/01/30 13:55:38;;;;;;;4.75;2.08;;;;;;;2.32;100.00;99399.44;5113747;28;20413;-81
2023/01/30 13:58:16;;;;;;;3.55;2.25;;;;;;;2.41;100.00;99408.53;5101471;28;20054;-81
2023/01/30 14:00:52;;;;;;;3.45;2.20;;;;;;;2.37;100.00;99423.22;5093546;28;20052;-81
2023/01/30 14:03:27;;;;;;;3.15;2.08;;;;;;;2.37;100.00;99425.91;5092750;28;20058;-81
2023/01/30 14:06:13;;;;;;;4.55;2.83;;;;;;;2.33;100.00;99433.31;5092816;28;20423;-81
2023/01/30 14:08:49;;;;;;;4.20;2.75;;;;;;;2.11;100.00;99419.00;5110036;28;20134;-81
2023/01/30 14:11:34;;;;;;;4.65;3.13;;;;;;;2.13;100.00;99438.47;5110254;28;20051;-81
2023/01/30 14:14:20;;;;;;;4.95;3.17;;;;;;;2.00;100.00;99421.66;5112162;28;20040;-81
2023/01/30 14:16:49;;;;;;;5.90;3.67;;;;;;;1.99;100.00;99427.16;5113582;28;20058;-81
2023/01/30 14:19:31;;;;;;;8.52;4.30;;;;;;;2.12;100.00;99442.16;5111864;28;20478;-81
2023/01/30 14:21:59;;;;;;;3.67;2.47;;;;;;;1.97;100.00;99400.47;5108535;28;20055;-81
2023/01/30 14:24:28;;;;;;;4.90;3.15;;;;;;;2.00;100.00;99396.69;5112663;28;20048;-81
2023/01/30 14:27:04;;;;;;;4.32;2.63;;;;;;;2.08;100.00;99423.75;5109277;28;21268;-81
2023/01/30 14:29:56;;;;;;;4.63;3.30;;;;;;;2.42;100.00;99419.16;5113469;28;20047;-81
2023/01/30 14:32:52;;;;;;;7.35;3.75;;;;;;;2.40;100.00;99409.53;5102787;28;20051;-81
2023/01/30 14:35:27;;;;;;;5.68;2.35;;;;;;;2.45;100.00;99421.59;5104487;28;20933;-81
2023/01/30 14:38:12;;;;;;;4.35;1.63;;;;;;;2.37;100.00;99426.72;5104892;28;20143;-81
2023/01/30 14:41:14;;;;;;;5.30;3.15;;;;;;;2.45;100.00;99426.97;5107067;28;20062;-81
2023/01/30 14:43:52;;;;;;;8.98;4.65;;;;;;;2.40;100.00;99431.84;5110016;28;20059;-81
2023/01/30 14:46:41;;;;;;;4.57;2.88;;;;;;;2.40;100.00;99428.31;5110808;28;20055;-81
2023/01/30 14:49:21;;;;;;;8.75;3.40;;;;;;;2.26;100.00;99427.63;5108059;28;20047;-81
2023/01/30 14:51:48;;;;;;;;;;;;;;;2.28;100.00;99460.53;5114557;28;20134;-81
2023/01/30 14:54:24;;;;;;;8.23;3.75;;;;;;;2.19;100.00;99457.75;5113252;28;19920;-80
2023/01/30 14:56:54;;;;;;;5.18;2.22;;;;;;;2.23;100.00;99473.47;5109143;28;20388;-81
2023/01/30 14:59:26;;;;;;;6.40;2.85;;;;;;;2.11;100.00;99472.63;5098708;28;20474;-81
2023/01/30 15:01:55;;;;;;;4.50;2.78;;;;;;;1.90;100.00;99448.38;5108855;28;20055;-81
2023/01/30 15:04:27;;;;;;;4.97;2.65;;;;;;;2.02;100.00;99465.31;5105104;28;20051;-81
2023/01/30 15:06:55;;;;;;;4.60;2.90;;;;;;;1.96;100.00;99463.16;5113699;28;20491;-81
2023/01/30 15:09:26;;;;;;;9.57;3.33;;;;;;;1.79;100.00;99440.34;5113877;28;20055;-81
2023/01/30 15:12:15;;;;;;;4.47;3.08;;;;;;;1.83;100.00;99462.41;5104550;28;20044;-81
2023/01/30 15:14:54;;;;;;;7.38;3.22;;;;;;;1.76;100.00;99467.38;5098840;28;20135;-80
2023/01/30 15:17:31;;;;;;;22.80;9.43;;;;;;;1.73;100.00;99468.50;5104230;28;20050;-81
2023/01/30 15:20:13;;;;;;;9.70;3.25;;;;;;;1.82;100.00;99466.06;5110240;28;20051;-81
2023/01/30 15:22:55;;;;;;;6.85;3.40;;;;;;;1.88;100.00;99484.34;5103964;28;20487;-81
2023/01/30 15:25:32;;;;;;;8.23;3.95;;;;;;;1.74;100.00;99475.56;5093335;28;20052;-81
2023/01/30 15:28:10;;;;;;;14.30;5.20;;;;;;;1.80;100.00;99484.94;5105106;28;20051;-80
2023/01/30 15:31:01;;;;;;;7.20;3.53;;;;;;;1.73;100.00;99470.31;5111766;28;20126;-80
2023/01/30 15:33:28;;;;;;;8.90;3.90;;;;;;;1.85;100.00;99492.63;5104537;28;20058;-81
2023/01/30 15:35:54;;;;;;;8.15;4.03;;;;;;;1.81;100.00;99470.56;5105686;28;20440;-80
2023/01/30 15:38:28;;;;;;;5.82;3.58;;;;;;;1.84;100.00;99478.38;5112143;28;20505;-80
2023/01/30 15:40:56;;;;;;;5.85;3.22;;;;;;;1.73;100.00;99473.00;5106632;28;20052;-80
2023/01/30 15:43:49;;;;;;;6.78;3.83;;;;;;;1.87;100.00;99485.34;5096203;28;20133;-80
2023/01/30 15:46:27;;;;;;;6.60;3.45;;;;;;;1.85;100.00;99484.56;5112035;28;20066;-81
2023/01/30 15:49:10;;;;;;;5.75;3.38;;;;;;;1.88;100.00;99495.06;5106211;28;20050;-83
2023/01/30 15:51:38;;;;;;;9.90;4.35;;;;;;;1.80;100.00;99484.94;5112673;28;20051;-78
2023/01/30 15:54:10;;;;;;;7.32;3.95;;;;;;;1.93;100.00;99495.56;5110932;28;20039;-79
2023/01/30 15:56:39;;;;;;;6.88;2.83;;;;;;;1.80;100.00;99484.09;5099657;28;20048;-79
2023/01/30 15:59:07;;;;;;;7.13;3.50;;;;;;;1.75;100.00;99479.94;5090953;28;20056;-79
2023/01/30 16:01:34;;;;;;;6.53;3.58;;;;;;;1.77;100.00;99491.38;5103536;28;20052;-79
2023/01/30 16:04:06;;;;;;;6.93;3.80;;;;;;;1.88;100.00;99497.75;5110167;28;20059;-79
2023/01/30 16:06:35;;;;;;;8.95;3.25;;;;;;;1.89;100.00;99508.34;5111926;28;20409;-79
2023/01/30 16:09:04;;;;;;;8.05;3.60;;;;;;;1.79;100.00;99499.31;5111813;28;20051;-80
2023/01/30 16:11:39;;;;;;;13.60;4.95;;;;;;;1.74;100.00;99502.34;5107005;28;20503;-79
2023/01/30 16:14:06;;;;;;;10.77;4.20;;;;;;;1.83;100.00;99516.88;5111580;28;20048;-79
2023/01/30 16:16:35;;;;;;;6.68;3.85;;;;;;;1.77;100.00;99494.06;5106912;28;20047;-79
2023/01/30 16:19:05;;;;;;;8.23;3.10;;;;;;;1.76;100.00;99503.09;5114379;28;20044;-79
2023/01/30 16:21:35;;;;;;;11.52;4.85;;;;;;;1.83;100.00;99529.44;5115830;28;20052;-79
2023/01/30 16:24:04;;;;;;;8.55;4.10;;;;;;;1.81;100.00;99542.09;5115348;27;20056;-79
2023/01/30 16:26:33;;;;;;;6.60;3.92;;;;;;;1.82;100.00;99543.81;5102065;28;20054;-79
2023/01/30 16:29:02;;;;;;;5.32;3.50;;;;;;;1.74;100.00;99544.41;5089077;28;20052;-79
2023/01/30 16:31:32;;;;;;;6.95;3.67;;;;;;;1.65;100.00;99527.19;5103120;28;20044;-79
2023/01/30 16:34:00;;;;;;;7.80;3.97;;;;;;;1.71;100.00;99556.22;5111270;28;20425;-79
2023/01/30 16:36:33;;;;;;;14.35;3.17;;;;;;;1.83;100.00;99577.69;5112791;28;20054;-79
2023/01/30 16:38:59;;;;;;;6.82;3.65;;;;;;;1.79;100.00;99555.59;5113659;28;20130;-79
2023/01/30 16:41:31;;;;;;;7.43;3.60;;;;;;;1.82;100.00;99565.25;5099670;28;20052;-79
2023/01/30 16:44:10;;;;;;;8.88;3.97;;;;;;;1.69;100.00;99552.81;5091006;28;20055;-79
2023/01/30 16:46:51;;;;;;;6.60;3.10;;;;;;;1.77;100.00;99562.94;5100158;28;20047;-79
2023/01/30 16:49:23;;;;;;;7.45;3.55;;;;;;;1.81;100.00;99577.81;5103024;28;20052;-79
2023/01/30 16:51:50;;;;;;;10.20;4.85;;;;;;;1.75;100.00;99573.78;5112138;28;20040;-79
2023/01/30 16:54:20;;;;;;;7.53;4.43;;;;;;;1.71;100.00;99566.09;5112175;28;20047;-79
2023/01/30 16:56:50;;;;;;;4.30;2.83;;;;;;;1.77;100.00;99574.50;5095633;28;20059;-79
2023/01/30 16:59:20;;;;;;;6.75;4.28;;;;;;;1.83;100.00;99583.06;5092342;28;20534;-79
2023/01/30 17:01:47;;;;;;;7.10;3.35;;;;;;;1.77;100.00;99579.84;5111808;28;20388;-79
2023/01/30 17:04:22;;;;;;;9.30;3.70;;;;;;;1.74;100.00;99581.94;5111451;28;20047;-79
2023/01/30 17:06:53;;;;;;;6.97;3.97;;;;;;;1.75;100.00;99597.06;5110604;28;20052;-79
2023/01/30 17:09:42;;;;;;;7.45;2.97;;;;;;;1.72;100.00;99583.88;5112011;28;20048;-79
2023/01/30 17:12:35;;;;;;;7.20;3.70;;;;;;;1.76;100.00;99602.28;5089925;28;20461;-79
2023/01/30 17:15:25;;;;;;;4.45;3.47;;;;;;;1.64;100.00;99584.47;5101851;28;20130;-80
2023/01/30 17:17:52;;;;;;;;;;;;;;;1.74;100.00;99616.78;5112613;28;20043;-80
2023/01/30 17:20:20;;;;;;;9.75;3.63;;;;;;;1.69;100.00;99619.81;5111378;28;19920;-79
2023/01/30 17:22:51;;;;;;;7.78;4.30;;;;;;;1.59;100.00;99613.44;5107458;28;20153;-79
2023/01/30 17:25:24;;;;;;;8.00;3.67;;;;;;;1.64;100.00;99647.94;5108609;28;20035;-79
2023/01/30 17:27:50;;;;;;;8.23;3.67;;;;;;;1.51;100.00;99631.94;5091183;28;20066;-79
2023/01/30 17:30:18;;;;;;;8.52;3.65;;;;;;;1.59;100.00;99653.63;5103393;28;20040;-80
2023/01/30 17:32:44;;;;;;;9.10;4.03;;;;;;;1.56;100.00;99651.19;5110864;28;20447;-79
2023/01/30 17:35:11;;;;;;;6.72;3.65;;;;;;;1.52;100.00;99650.59;5111202;28;20064;-79
2023/01/30 17:37:40;;;;;;;9.10;3.92;;;;;;;1.48;100.00;99653.59;5111654;28;20134;-79
2023/01/30 17:40:17;;;;;;;8.23;4.00;;;;;;;1.56;100.00;99669.94;5102055;28;20131;-82
